This is the latest recevied weather packets stored in our database for station/object JA6YCL-13. If no packets are shown the sender has not sent any weather packets the latest 10 day(s).
| Time | Temp. | Humidity | Pressure | Rain* | Wind** | Luminosity | Snow |
|---|---|---|---|---|---|---|---|
| 1777440349 | 18.33° C | 61% | 1016.1 hPa | 0 mm | - | - | - |
| 1777439576 | 18.89° C | 61% | 1015.8 hPa | 0 mm | - | - | - |
| 1777438721 | 18.89° C | 60% | 1015.7 hPa | 0 mm | - | - | - |
| 1777437836 | 20° C | 57% | 1015.6 hPa | 0 mm | - | - | - |
| 1777436961 | 20.56° C | 56% | 1015.4 hPa | 0 mm | - | - | - |
| 1777436136 | 20° C | 56% | 1015.5 hPa | 0 mm | - | - | - |
| 1777435362 | 20° C | 57% | 1015.7 hPa | 0 mm | - | - | - |
| 1777434641 | 19.44° C | 59% | 1015.9 hPa | 0 mm | - | - | - |
| 1777433891 | 19.44° C | 59% | 1015.9 hPa | 0 mm | - | - | - |
| 1777433081 | 19.44° C | 60% | 1016 hPa | 0 mm | - | - | - |
| 1777432219 | 20° C | 59% | 1016 hPa | 0 mm | - | - | - |
| 1777431326 | 19.44° C | 62% | 1016.2 hPa | 0 mm | - | - | - |
| 1777430524 | 18.89° C | 63% | 1016.3 hPa | 0 mm | - | - | - |
| 1777429751 | 19.44° C | 61% | 1016.5 hPa | 0 mm | - | - | - |
| 1777428961 | 19.44° C | 61% | 1016.7 hPa | 0 mm | - | - | - |
| 1777428220 | 19.44° C | 62% | 1016.4 hPa | 0 mm | - | - | - |
| 1777427491 | 20° C | 60% | 1016.5 hPa | 0 mm | - | - | - |
| 1777426666 | 20.56° C | 59% | 1016.6 hPa | 0 mm | - | - | - |
| 1777425884 | 19.44° C | 62% | 1016.7 hPa | 0 mm | - | - | - |
| 1777425066 | 19.44° C | 63% | 1016.5 hPa | 0 mm | - | - | - |
| 1777424188 | 18.33° C | 65% | 1016.9 hPa | 0 mm | - | - | - |
| 1777423296 | 18.89° C | 64% | 1016.7 hPa | 0 mm | - | - | - |
| 1777422564 | 18.33° C | 65% | 1016.6 hPa | 0 mm | - | - | - |
| 1777421664 | 18.33° C | 67% | 1016.8 hPa | 0 mm | - | - | - |
| 1777420882 | 18.33° C | 66% | 1016.7 hPa | 0 mm | - | - | - |
* Rain latest hour (hover to see other rain measurements)
** Current wind speed in m/s (hover to see current wind gust speed)